sensor_id;sensor_type;location;lat;lon;timestamp;P1;durP1;ratioP1;P2;durP2;ratioP2
3036;SDS011;1528;52.550;13.408;2023-01-10T00:00:26;11.00;;;10.50;;
3036;SDS011;1528;52.550;13.408;2023-01-10T00:03:18;10.00;;;9.60;;
3036;SDS011;1528;52.550;13.408;2023-01-10T00:06:04;12.90;;;12.40;;
3036;SDS011;1528;52.550;13.408;2023-01-10T00:08:50;11.87;;;11.30;;
3036;SDS011;1528;52.550;13.408;2023-01-10T00:11:35;11.67;;;11.17;;
3036;SDS011;1528;52.550;13.408;2023-01-10T00:14:38;11.97;;;11.40;;
3036;SDS011;1528;52.550;13.408;2023-01-10T00:17:24;12.53;;;11.73;;
3036;SDS011;1528;52.550;13.408;2023-01-10T00:20:11;12.33;;;11.77;;
3036;SDS011;1528;52.550;13.408;2023-01-10T00:22:57;13.73;;;13.03;;
3036;SDS011;1528;52.550;13.408;2023-01-10T00:25:43;14.47;;;13.57;;
3036;SDS011;1528;52.550;13.408;2023-01-10T00:28:29;14.77;;;14.10;;
3036;SDS011;1528;52.550;13.408;2023-01-10T00:31:17;14.07;;;13.27;;
3036;SDS011;1528;52.550;13.408;2023-01-10T00:34:03;12.93;;;12.33;;
3036;SDS011;1528;52.550;13.408;2023-01-10T00:36:51;14.90;;;13.97;;
3036;SDS011;1528;52.550;13.408;2023-01-10T00:39:37;12.57;;;11.60;;
3036;SDS011;1528;52.550;13.408;2023-01-10T00:42:22;11.90;;;11.30;;
3036;SDS011;1528;52.550;13.408;2023-01-10T00:45:25;11.80;;;11.30;;
3036;SDS011;1528;52.550;13.408;2023-01-10T00:48:11;12.60;;;11.90;;
3036;SDS011;1528;52.550;13.408;2023-01-10T00:51:04;12.23;;;11.63;;
3036;SDS011;1528;52.550;13.408;2023-01-10T00:53:51;14.10;;;13.40;;
3036;SDS011;1528;52.550;13.408;2023-01-10T00:56:37;12.93;;;12.10;;
3036;SDS011;1528;52.550;13.408;2023-01-10T00:59:23;13.33;;;12.67;;
3036;SDS011;1528;52.550;13.408;2023-01-10T01:02:08;13.37;;;12.57;;
3036;SDS011;1528;52.550;13.408;2023-01-10T01:04:54;12.73;;;12.00;;
3036;SDS011;1528;52.550;13.408;2023-01-10T01:07:40;13.63;;;12.70;;
3036;SDS011;1528;52.550;13.408;2023-01-10T01:10:27;12.57;;;11.87;;
3036;SDS011;1528;52.550;13.408;2023-01-10T01:13:14;14.27;;;13.67;;
3036;SDS011;1528;52.550;13.408;2023-01-10T01:16:01;12.90;;;12.33;;
3036;SDS011;1528;52.550;13.408;2023-01-10T01:18:46;14.63;;;14.03;;
3036;SDS011;1528;52.550;13.408;2023-01-10T01:21:32;12.13;;;11.63;;
3036;SDS011;1528;52.550;13.408;2023-01-10T01:24:17;11.60;;;11.00;;
3036;SDS011;1528;52.550;13.408;2023-01-10T01:27:05;13.17;;;12.57;;
3036;SDS011;1528;52.550;13.408;2023-01-10T01:29:51;13.73;;;12.73;;
3036;SDS011;1528;52.550;13.408;2023-01-10T01:32:36;12.00;;;11.50;;
3036;SDS011;1528;52.550;13.408;2023-01-10T01:35:22;13.70;;;12.90;;
3036;SDS011;1528;52.550;13.408;2023-01-10T01:38:08;13.13;;;12.33;;
3036;SDS011;1528;52.550;13.408;2023-01-10T01:40:53;12.13;;;11.53;;
3036;SDS011;1528;52.550;13.408;2023-01-10T01:46:45;11.90;;;11.40;;
3036;SDS011;1528;52.550;13.408;2023-01-10T01:49:35;12.97;;;12.47;;
3036;SDS011;1528;52.550;13.408;2023-01-10T01:52:25;12.50;;;12.00;;
3036;SDS011;1528;52.550;13.408;2023-01-10T01:55:13;13.80;;;13.20;;
3036;SDS011;1528;52.550;13.408;2023-01-10T01:58:00;13.47;;;12.77;;
3036;SDS011;1528;52.550;13.408;2023-01-10T02:00:51;12.13;;;11.57;;
3036;SDS011;1528;52.550;13.408;2023-01-10T02:03:37;12.47;;;11.80;;
3036;SDS011;1528;52.550;13.408;2023-01-10T02:06:24;12.07;;;11.37;;
3036;SDS011;1528;52.550;13.408;2023-01-10T02:09:11;11.90;;;11.40;;
3036;SDS011;1528;52.550;13.408;2023-01-10T02:12:02;12.70;;;12.10;;
3036;SDS011;1528;52.550;13.408;2023-01-10T02:14:48;12.90;;;12.40;;
3036;SDS011;1528;52.550;13.408;2023-01-10T02:17:36;13.90;;;13.10;;
3036;SDS011;1528;52.550;13.408;2023-01-10T02:20:22;11.37;;;10.67;;
3036;SDS011;1528;52.550;13.408;2023-01-10T02:23:12;12.17;;;11.47;;
3036;SDS011;1528;52.550;13.408;2023-01-10T02:26:18;12.37;;;11.87;;
3036;SDS011;1528;52.550;13.408;2023-01-10T02:29:31;12.20;;;11.43;;
3036;SDS011;1528;52.550;13.408;2023-01-10T02:32:45;12.93;;;12.33;;
3036;SDS011;1528;52.550;13.408;2023-01-10T02:35:37;11.50;;;10.90;;
3036;SDS011;1528;52.550;13.408;2023-01-10T02:38:51;12.53;;;11.93;;
3036;SDS011;1528;52.550;13.408;2023-01-10T02:41:44;14.37;;;13.47;;
3036;SDS011;1528;52.550;13.408;2023-01-10T02:44:33;13.83;;;13.23;;
3036;SDS011;1528;52.550;13.408;2023-01-10T02:47:25;12.13;;;11.33;;
3036;SDS011;1528;52.550;13.408;2023-01-10T02:50:27;13.83;;;13.13;;
3036;SDS011;1528;52.550;13.408;2023-01-10T02:53:20;13.13;;;12.23;;
3036;SDS011;1528;52.550;13.408;2023-01-10T02:56:17;14.53;;;13.83;;
3036;SDS011;1528;52.550;13.408;2023-01-10T02:59:16;12.57;;;11.87;;
3036;SDS011;1528;52.550;13.408;2023-01-10T03:02:20;15.07;;;13.83;;
3036;SDS011;1528;52.550;13.408;2023-01-10T03:05:15;14.17;;;13.33;;
3036;SDS011;1528;52.550;13.408;2023-01-10T03:08:14;13.43;;;12.73;;
3036;SDS011;1528;52.550;13.408;2023-01-10T03:11:08;13.77;;;12.97;;
3036;SDS011;1528;52.550;13.408;2023-01-10T03:13:56;15.70;;;14.90;;
3036;SDS011;1528;52.550;13.408;2023-01-10T03:16:45;14.17;;;13.30;;
3036;SDS011;1528;52.550;13.408;2023-01-10T03:19:37;13.13;;;12.30;;
3036;SDS011;1528;52.550;13.408;2023-01-10T03:22:28;12.13;;;11.57;;
3036;SDS011;1528;52.550;13.408;2023-01-10T03:25:16;13.10;;;12.10;;
3036;SDS011;1528;52.550;13.408;2023-01-10T03:28:07;13.70;;;12.87;;
3036;SDS011;1528;52.550;13.408;2023-01-10T03:30:56;14.30;;;13.60;;
3036;SDS011;1528;52.550;13.408;2023-01-10T03:33:48;12.23;;;11.53;;
3036;SDS011;1528;52.550;13.408;2023-01-10T03:36:36;12.43;;;11.70;;
3036;SDS011;1528;52.550;13.408;2023-01-10T03:39:29;13.13;;;12.53;;
3036;SDS011;1528;52.550;13.408;2023-01-10T03:42:20;12.10;;;11.60;;
3036;SDS011;1528;52.550;13.408;2023-01-10T03:45:11;10.40;;;9.80;;
3036;SDS011;1528;52.550;13.408;2023-01-10T03:47:59;12.57;;;11.70;;
3036;SDS011;1528;52.550;13.408;2023-01-10T03:50:48;14.40;;;13.70;;
3036;SDS011;1528;52.550;13.408;2023-01-10T03:53:36;15.17;;;14.40;;
3036;SDS011;1528;52.550;13.408;2023-01-10T03:56:22;13.03;;;12.33;;
3036;SDS011;1528;52.550;13.408;2023-01-10T03:59:09;14.40;;;13.57;;
3036;SDS011;1528;52.550;13.408;2023-01-10T04:01:55;12.87;;;12.17;;
3036;SDS011;1528;52.550;13.408;2023-01-10T04:04:40;13.17;;;12.40;;
3036;SDS011;1528;52.550;13.408;2023-01-10T04:07:26;12.80;;;12.20;;
3036;SDS011;1528;52.550;13.408;2023-01-10T04:10:12;13.50;;;12.60;;
3036;SDS011;1528;52.550;13.408;2023-01-10T04:12:58;13.27;;;12.53;;
3036;SDS011;1528;52.550;13.408;2023-01-10T04:15:46;13.60;;;12.60;;
3036;SDS011;1528;52.550;13.408;2023-01-10T04:18:33;13.97;;;13.17;;
3036;SDS011;1528;52.550;13.408;2023-01-10T04:21:18;13.63;;;12.73;;
3036;SDS011;1528;52.550;13.408;2023-01-10T04:24:05;12.83;;;12.00;;
3036;SDS011;1528;52.550;13.408;2023-01-10T04:26:51;14.30;;;13.03;;
3036;SDS011;1528;52.550;13.408;2023-01-10T04:29:36;14.63;;;13.73;;
3036;SDS011;1528;52.550;13.408;2023-01-10T04:32:23;16.10;;;15.00;;
3036;SDS011;1528;52.550;13.408;2023-01-10T04:35:09;16.53;;;15.53;;
3036;SDS011;1528;52.550;13.408;2023-01-10T04:37:54;15.70;;;14.70;;
3036;SDS011;1528;52.550;13.408;2023-01-10T04:40:40;13.33;;;12.43;;
3036;SDS011;1528;52.550;13.408;2023-01-10T04:43:26;14.90;;;13.80;;
3036;SDS011;1528;52.550;13.408;2023-01-10T04:46:12;24.47;;;23.13;;
3036;SDS011;1528;52.550;13.408;2023-01-10T04:48:59;24.13;;;22.67;;
3036;SDS011;1528;52.550;13.408;2023-01-10T04:51:45;22.87;;;21.67;;
3036;SDS011;1528;52.550;13.408;2023-01-10T04:54:30;24.13;;;22.73;;
3036;SDS011;1528;52.550;13.408;2023-01-10T04:57:16;24.67;;;23.57;;
3036;SDS011;1528;52.550;13.408;2023-01-10T05:00:02;23.93;;;22.30;;
3036;SDS011;1528;52.550;13.408;2023-01-10T05:02:48;27.60;;;26.10;;
3036;SDS011;1528;52.550;13.408;2023-01-10T05:05:40;29.90;;;28.50;;
3036;SDS011;1528;52.550;13.408;2023-01-10T05:08:26;25.40;;;24.00;;
3036;SDS011;1528;52.550;13.408;2023-01-10T05:11:12;25.03;;;23.50;;
3036;SDS011;1528;52.550;13.408;2023-01-10T05:13:58;23.77;;;22.27;;
3036;SDS011;1528;52.550;13.408;2023-01-10T05:16:44;25.20;;;24.07;;
3036;SDS011;1528;52.550;13.408;2023-01-10T05:19:30;24.33;;;22.83;;
3036;SDS011;1528;52.550;13.408;2023-01-10T05:22:17;25.40;;;23.77;;
3036;SDS011;1528;52.550;13.408;2023-01-10T05:25:03;25.10;;;23.80;;
3036;SDS011;1528;52.550;13.408;2023-01-10T05:27:49;23.23;;;21.73;;
3036;SDS011;1528;52.550;13.408;2023-01-10T05:30:34;23.47;;;22.03;;
3036;SDS011;1528;52.550;13.408;2023-01-10T05:33:20;24.40;;;22.87;;
3036;SDS011;1528;52.550;13.408;2023-01-10T05:36:06;24.83;;;23.37;;
3036;SDS011;1528;52.550;13.408;2023-01-10T05:38:53;24.57;;;23.10;;
3036;SDS011;1528;52.550;13.408;2023-01-10T05:41:38;22.10;;;20.80;;
3036;SDS011;1528;52.550;13.408;2023-01-10T05:44:24;23.67;;;22.00;;
3036;SDS011;1528;52.550;13.408;2023-01-10T05:47:10;22.73;;;21.40;;
3036;SDS011;1528;52.550;13.408;2023-01-10T05:49:56;26.17;;;24.77;;
3036;SDS011;1528;52.550;13.408;2023-01-10T05:52:41;22.67;;;21.37;;
3036;SDS011;1528;52.550;13.408;2023-01-10T05:55:28;25.83;;;24.43;;
3036;SDS011;1528;52.550;13.408;2023-01-10T05:58:13;22.30;;;20.70;;
3036;SDS011;1528;52.550;13.408;2023-01-10T06:00:59;24.13;;;21.97;;
3036;SDS011;1528;52.550;13.408;2023-01-10T06:03:45;24.13;;;22.50;;
3036;SDS011;1528;52.550;13.408;2023-01-10T06:06:31;23.57;;;22.17;;
3036;SDS011;1528;52.550;13.408;2023-01-10T06:09:16;25.17;;;23.97;;
3036;SDS011;1528;52.550;13.408;2023-01-10T06:12:04;24.93;;;23.27;;
3036;SDS011;1528;52.550;13.408;2023-01-10T06:14:50;25.50;;;24.20;;
3036;SDS011;1528;52.550;13.408;2023-01-10T06:17:35;24.40;;;22.50;;
3036;SDS011;1528;52.550;13.408;2023-01-10T06:20:21;24.83;;;23.43;;
3036;SDS011;1528;52.550;13.408;2023-01-10T06:23:07;28.63;;;27.13;;
3036;SDS011;1528;52.550;13.408;2023-01-10T06:25:53;26.83;;;25.27;;
3036;SDS011;1528;52.550;13.408;2023-01-10T06:28:40;23.97;;;22.40;;
3036;SDS011;1528;52.550;13.408;2023-01-10T06:31:25;23.90;;;22.40;;
3036;SDS011;1528;52.550;13.408;2023-01-10T06:34:11;24.97;;;23.17;;
3036;SDS011;1528;52.550;13.408;2023-01-10T06:36:57;26.10;;;24.47;;
3036;SDS011;1528;52.550;13.408;2023-01-10T06:39:42;24.03;;;22.70;;
3036;SDS011;1528;52.550;13.408;2023-01-10T06:42:28;27.90;;;26.50;;
3036;SDS011;1528;52.550;13.408;2023-01-10T06:45:16;27.20;;;25.30;;
3036;SDS011;1528;52.550;13.408;2023-01-10T06:48:02;26.40;;;24.73;;
3036;SDS011;1528;52.550;13.408;2023-01-10T06:50:48;25.50;;;23.70;;
3036;SDS011;1528;52.550;13.408;2023-01-10T06:53:33;25.50;;;23.80;;
3036;SDS011;1528;52.550;13.408;2023-01-10T06:56:19;29.33;;;28.00;;
3036;SDS011;1528;52.550;13.408;2023-01-10T06:59:05;26.77;;;25.20;;
3036;SDS011;1528;52.550;13.408;2023-01-10T07:01:52;27.43;;;25.83;;
3036;SDS011;1528;52.550;13.408;2023-01-10T07:04:37;26.43;;;24.57;;
3036;SDS011;1528;52.550;13.408;2023-01-10T07:07:23;24.40;;;22.90;;
3036;SDS011;1528;52.550;13.408;2023-01-10T07:10:09;26.57;;;24.87;;
3036;SDS011;1528;52.550;13.408;2023-01-10T07:12:55;25.57;;;24.03;;
3036;SDS011;1528;52.550;13.408;2023-01-10T07:15:40;25.63;;;23.93;;
3036;SDS011;1528;52.550;13.408;2023-01-10T07:18:28;27.80;;;26.03;;
3036;SDS011;1528;52.550;13.408;2023-01-10T07:21:13;20.77;;;19.27;;
3036;SDS011;1528;52.550;13.408;2023-01-10T07:24:00;18.70;;;17.20;;
3036;SDS011;1528;52.550;13.408;2023-01-10T07:26:46;19.50;;;18.20;;
3036;SDS011;1528;52.550;13.408;2023-01-10T07:29:31;17.53;;;16.23;;
3036;SDS011;1528;52.550;13.408;2023-01-10T07:32:20;17.90;;;16.53;;
3036;SDS011;1528;52.550;13.408;2023-01-10T07:35:08;19.43;;;17.70;;
3036;SDS011;1528;52.550;13.408;2023-01-10T07:37:54;19.33;;;17.80;;
3036;SDS011;1528;52.550;13.408;2023-01-10T07:40:42;19.83;;;18.43;;
3036;SDS011;1528;52.550;13.408;2023-01-10T07:43:28;20.40;;;18.07;;
3036;SDS011;1528;52.550;13.408;2023-01-10T07:46:14;17.57;;;16.00;;
3036;SDS011;1528;52.550;13.408;2023-01-10T07:49:00;18.40;;;16.90;;
3036;SDS011;1528;52.550;13.408;2023-01-10T07:51:47;19.07;;;17.10;;
3036;SDS011;1528;52.550;13.408;2023-01-10T07:54:32;19.83;;;18.23;;
3036;SDS011;1528;52.550;13.408;2023-01-10T07:57:26;18.50;;;16.67;;
3036;SDS011;1528;52.550;13.408;2023-01-10T08:00:13;18.10;;;16.57;;
3036;SDS011;1528;52.550;13.408;2023-01-10T08:02:59;18.80;;;16.83;;
3036;SDS011;1528;52.550;13.408;2023-01-10T08:05:45;17.83;;;16.40;;
3036;SDS011;1528;52.550;13.408;2023-01-10T08:08:32;18.50;;;16.93;;
3036;SDS011;1528;52.550;13.408;2023-01-10T08:11:18;20.57;;;18.57;;
3036;SDS011;1528;52.550;13.408;2023-01-10T08:14:03;21.33;;;19.67;;
3036;SDS011;1528;52.550;13.408;2023-01-10T08:16:49;18.03;;;16.63;;
3036;SDS011;1528;52.550;13.408;2023-01-10T08:19:35;18.30;;;16.70;;
3036;SDS011;1528;52.550;13.408;2023-01-10T08:22:20;18.87;;;17.13;;
3036;SDS011;1528;52.550;13.408;2023-01-10T08:25:08;18.53;;;17.20;;
3036;SDS011;1528;52.550;13.408;2023-01-10T08:27:53;20.37;;;18.80;;
3036;SDS011;1528;52.550;13.408;2023-01-10T08:30:39;19.27;;;17.63;;
3036;SDS011;1528;52.550;13.408;2023-01-10T08:33:25;18.73;;;17.20;;
3036;SDS011;1528;52.550;13.408;2023-01-10T08:36:14;19.23;;;17.70;;
3036;SDS011;1528;52.550;13.408;2023-01-10T08:39:00;21.97;;;20.13;;
3036;SDS011;1528;52.550;13.408;2023-01-10T08:41:47;21.50;;;19.90;;
3036;SDS011;1528;52.550;13.408;2023-01-10T08:44:33;29.20;;;27.40;;
3036;SDS011;1528;52.550;13.408;2023-01-10T08:47:19;28.97;;;27.43;;
3036;SDS011;1528;52.550;13.408;2023-01-10T08:50:05;27.83;;;26.43;;
3036;SDS011;1528;52.550;13.408;2023-01-10T08:52:50;27.77;;;26.10;;
3036;SDS011;1528;52.550;13.408;2023-01-10T08:55:36;26.07;;;24.53;;
3036;SDS011;1528;52.550;13.408;2023-01-10T08:58:23;24.57;;;23.07;;
3036;SDS011;1528;52.550;13.408;2023-01-10T09:01:09;29.90;;;28.10;;
3036;SDS011;1528;52.550;13.408;2023-01-10T09:03:56;27.67;;;26.27;;
3036;SDS011;1528;52.550;13.408;2023-01-10T09:06:42;31.57;;;29.30;;
3036;SDS011;1528;52.550;13.408;2023-01-10T09:09:28;30.40;;;28.60;;
3036;SDS011;1528;52.550;13.408;2023-01-10T09:12:14;30.57;;;28.87;;
3036;SDS011;1528;52.550;13.408;2023-01-10T09:15:30;32.53;;;30.73;;
3036;SDS011;1528;52.550;13.408;2023-01-10T09:18:16;30.90;;;29.10;;
3036;SDS011;1528;52.550;13.408;2023-01-10T09:21:02;30.37;;;28.70;;
3036;SDS011;1528;52.550;13.408;2023-01-10T09:23:47;27.67;;;26.03;;
3036;SDS011;1528;52.550;13.408;2023-01-10T09:26:33;28.93;;;27.23;;
3036;SDS011;1528;52.550;13.408;2023-01-10T09:29:19;20.43;;;17.83;;
3036;SDS011;1528;52.550;13.408;2023-01-10T09:32:06;28.93;;;27.10;;
3036;SDS011;1528;52.550;13.408;2023-01-10T09:34:52;23.23;;;21.10;;
3036;SDS011;1528;52.550;13.408;2023-01-10T09:37:38;28.50;;;27.00;;
3036;SDS011;1528;52.550;13.408;2023-01-10T09:40:27;30.50;;;28.43;;
3036;SDS011;1528;52.550;13.408;2023-01-10T09:43:21;28.90;;;26.77;;
3036;SDS011;1528;52.550;13.408;2023-01-10T09:46:16;27.47;;;25.87;;
3036;SDS011;1528;52.550;13.408;2023-01-10T09:49:14;27.93;;;26.10;;
3036;SDS011;1528;52.550;13.408;2023-01-10T09:52:08;25.13;;;23.37;;
3036;SDS011;1528;52.550;13.408;2023-01-10T09:55:14;27.73;;;26.00;;
3036;SDS011;1528;52.550;13.408;2023-01-10T09:58:04;23.37;;;22.07;;
3036;SDS011;1528;52.550;13.408;2023-01-10T10:00:55;25.77;;;24.20;;
3036;SDS011;1528;52.550;13.408;2023-01-10T10:03:44;25.13;;;23.83;;
3036;SDS011;1528;52.550;13.408;2023-01-10T10:06:36;25.83;;;24.23;;
3036;SDS011;1528;52.550;13.408;2023-01-10T10:09:22;16.43;;;15.17;;
3036;SDS011;1528;52.550;13.408;2023-01-10T10:12:20;17.57;;;16.03;;
3036;SDS011;1528;52.550;13.408;2023-01-10T10:15:17;19.27;;;17.70;;
3036;SDS011;1528;52.550;13.408;2023-01-10T10:18:09;24.07;;;22.33;;
3036;SDS011;1528;52.550;13.408;2023-01-10T10:21:02;23.73;;;22.33;;
3036;SDS011;1528;52.550;13.408;2023-01-10T10:24:01;21.87;;;20.33;;
3036;SDS011;1528;52.550;13.408;2023-01-10T10:27:10;22.20;;;20.80;;
3036;SDS011;1528;52.550;13.408;2023-01-10T10:30:07;23.10;;;21.40;;
3036;SDS011;1528;52.550;13.408;2023-01-10T10:33:06;22.50;;;20.73;;
3036;SDS011;1528;52.550;13.408;2023-01-10T10:36:12;24.37;;;22.77;;
3036;SDS011;1528;52.550;13.408;2023-01-10T10:39:05;22.90;;;21.30;;
3036;SDS011;1528;52.550;13.408;2023-01-10T10:41:56;23.90;;;22.40;;
3036;SDS011;1528;52.550;13.408;2023-01-10T10:44:44;21.97;;;20.40;;
3036;SDS011;1528;52.550;13.408;2023-01-10T10:47:34;25.23;;;23.73;;
3036;SDS011;1528;52.550;13.408;2023-01-10T10:50:22;27.37;;;25.53;;
3036;SDS011;1528;52.550;13.408;2023-01-10T10:53:13;21.93;;;20.63;;
3036;SDS011;1528;52.550;13.408;2023-01-10T10:56:03;22.00;;;20.40;;
3036;SDS011;1528;52.550;13.408;2023-01-10T10:58:51;18.50;;;17.40;;
3036;SDS011;1528;52.550;13.408;2023-01-10T11:01:40;21.10;;;19.87;;
3036;SDS011;1528;52.550;13.408;2023-01-10T11:04:29;25.70;;;24.00;;
3036;SDS011;1528;52.550;13.408;2023-01-10T11:07:16;21.83;;;20.17;;
3036;SDS011;1528;52.550;13.408;2023-01-10T11:10:03;23.23;;;22.03;;
3036;SDS011;1528;52.550;13.408;2023-01-10T11:13:15;24.70;;;23.20;;
3036;SDS011;1528;52.550;13.408;2023-01-10T11:16:04;23.77;;;22.20;;
3036;SDS011;1528;52.550;13.408;2023-01-10T11:21:59;24.17;;;22.70;;
3036;SDS011;1528;52.550;13.408;2023-01-10T11:24:49;24.20;;;22.77;;
3036;SDS011;1528;52.550;13.408;2023-01-10T11:27:44;23.43;;;22.03;;
3036;SDS011;1528;52.550;13.408;2023-01-10T11:30:32;24.27;;;22.70;;
3036;SDS011;1528;52.550;13.408;2023-01-10T11:33:20;25.10;;;23.70;;
3036;SDS011;1528;52.550;13.408;2023-01-10T11:36:09;25.00;;;23.83;;
3036;SDS011;1528;52.550;13.408;2023-01-10T11:39:00;15.50;;;14.30;;
3036;SDS011;1528;52.550;13.408;2023-01-10T11:41:46;25.43;;;24.23;;
3036;SDS011;1528;52.550;13.408;2023-01-10T11:44:34;26.73;;;25.20;;
3036;SDS011;1528;52.550;13.408;2023-01-10T11:47:21;27.10;;;25.20;;
3036;SDS011;1528;52.550;13.408;2023-01-10T11:50:07;23.40;;;21.90;;
3036;SDS011;1528;52.550;13.408;2023-01-10T11:52:55;27.67;;;25.93;;
3036;SDS011;1528;52.550;13.408;2023-01-10T11:55:45;24.77;;;23.20;;
3036;SDS011;1528;52.550;13.408;2023-01-10T11:58:32;24.23;;;22.13;;
3036;SDS011;1528;52.550;13.408;2023-01-10T12:01:25;21.90;;;20.50;;
3036;SDS011;1528;52.550;13.408;2023-01-10T12:04:15;26.40;;;24.83;;
3036;SDS011;1528;52.550;13.408;2023-01-10T12:07:06;22.17;;;20.83;;
3036;SDS011;1528;52.550;13.408;2023-01-10T12:09:55;22.00;;;20.30;;
3036;SDS011;1528;52.550;13.408;2023-01-10T12:12:42;21.43;;;20.10;;
3036;SDS011;1528;52.550;13.408;2023-01-10T12:15:38;25.90;;;24.30;;
3036;SDS011;1528;52.550;13.408;2023-01-10T12:18:24;28.90;;;27.07;;
3036;SDS011;1528;52.550;13.408;2023-01-10T12:21:12;24.00;;;22.50;;
3036;SDS011;1528;52.550;13.408;2023-01-10T12:24:01;22.93;;;21.40;;
3036;SDS011;1528;52.550;13.408;2023-01-10T12:26:49;22.63;;;20.93;;
3036;SDS011;1528;52.550;13.408;2023-01-10T12:29:38;22.37;;;21.17;;
3036;SDS011;1528;52.550;13.408;2023-01-10T12:32:27;22.57;;;21.17;;
3036;SDS011;1528;52.550;13.408;2023-01-10T12:35:19;19.73;;;18.77;;
3036;SDS011;1528;52.550;13.408;2023-01-10T12:38:14;25.70;;;24.27;;
3036;SDS011;1528;52.550;13.408;2023-01-10T12:41:07;20.17;;;19.00;;
3036;SDS011;1528;52.550;13.408;2023-01-10T12:44:16;21.67;;;20.17;;
3036;SDS011;1528;52.550;13.408;2023-01-10T12:47:09;22.37;;;20.70;;
3036;SDS011;1528;52.550;13.408;2023-01-10T12:50:02;20.63;;;19.13;;
3036;SDS011;1528;52.550;13.408;2023-01-10T12:52:52;21.23;;;19.53;;
3036;SDS011;1528;52.550;13.408;2023-01-10T12:55:44;19.70;;;18.60;;
3036;SDS011;1528;52.550;13.408;2023-01-10T12:58:33;20.50;;;19.20;;
3036;SDS011;1528;52.550;13.408;2023-01-10T13:01:27;20.77;;;19.57;;
3036;SDS011;1528;52.550;13.408;2023-01-10T13:04:15;22.13;;;20.23;;
3036;SDS011;1528;52.550;13.408;2023-01-10T13:07:05;20.97;;;19.50;;
3036;SDS011;1528;52.550;13.408;2023-01-10T13:09:52;24.77;;;23.17;;
3036;SDS011;1528;52.550;13.408;2023-01-10T13:12:39;21.20;;;20.13;;
3036;SDS011;1528;52.550;13.408;2023-01-10T13:15:29;21.30;;;19.40;;
3036;SDS011;1528;52.550;13.408;2023-01-10T13:18:18;21.23;;;19.77;;
3036;SDS011;1528;52.550;13.408;2023-01-10T13:21:08;20.47;;;19.13;;
3036;SDS011;1528;52.550;13.408;2023-01-10T13:23:56;13.97;;;12.70;;
3036;SDS011;1528;52.550;13.408;2023-01-10T13:26:45;23.53;;;21.97;;
3036;SDS011;1528;52.550;13.408;2023-01-10T13:29:38;21.80;;;20.57;;
3036;SDS011;1528;52.550;13.408;2023-01-10T13:32:26;26.23;;;24.67;;
3036;SDS011;1528;52.550;13.408;2023-01-10T13:35:14;22.73;;;20.70;;
3036;SDS011;1528;52.550;13.408;2023-01-10T13:38:02;22.10;;;21.10;;
3036;SDS011;1528;52.550;13.408;2023-01-10T13:40:55;20.83;;;19.40;;
3036;SDS011;1528;52.550;13.408;2023-01-10T13:43:58;22.67;;;21.20;;
3036;SDS011;1528;52.550;13.408;2023-01-10T13:46:54;17.87;;;16.87;;
3036;SDS011;1528;52.550;13.408;2023-01-10T13:49:41;20.07;;;18.83;;
3036;SDS011;1528;52.550;13.408;2023-01-10T13:52:29;21.40;;;20.03;;
3036;SDS011;1528;52.550;13.408;2023-01-10T13:55:21;22.23;;;20.93;;
3036;SDS011;1528;52.550;13.408;2023-01-10T14:01:43;19.50;;;18.20;;
3036;SDS011;1528;52.550;13.408;2023-01-10T14:04:53;21.00;;;19.70;;
3036;SDS011;1528;52.550;13.408;2023-01-10T14:07:42;22.20;;;20.33;;
3036;SDS011;1528;52.550;13.408;2023-01-10T14:10:30;27.77;;;25.73;;
3036;SDS011;1528;52.550;13.408;2023-01-10T14:13:18;24.43;;;22.83;;
3036;SDS011;1528;52.550;13.408;2023-01-10T14:16:08;19.90;;;18.27;;
3036;SDS011;1528;52.550;13.408;2023-01-10T14:19:22;22.80;;;21.13;;
3036;SDS011;1528;52.550;13.408;2023-01-10T14:22:22;13.67;;;12.90;;
3036;SDS011;1528;52.550;13.408;2023-01-10T14:25:14;12.50;;;11.53;;
3036;SDS011;1528;52.550;13.408;2023-01-10T14:28:03;15.13;;;13.80;;
3036;SDS011;1528;52.550;13.408;2023-01-10T14:31:02;13.90;;;12.90;;
3036;SDS011;1528;52.550;13.408;2023-01-10T14:33:51;16.33;;;14.73;;
3036;SDS011;1528;52.550;13.408;2023-01-10T14:36:40;14.60;;;13.50;;
3036;SDS011;1528;52.550;13.408;2023-01-10T14:39:33;15.13;;;14.03;;
3036;SDS011;1528;52.550;13.408;2023-01-10T14:42:19;15.50;;;14.40;;
3036;SDS011;1528;52.550;13.408;2023-01-10T14:45:09;14.93;;;13.83;;
3036;SDS011;1528;52.550;13.408;2023-01-10T14:48:22;15.87;;;14.43;;
3036;SDS011;1528;52.550;13.408;2023-01-10T14:51:18;14.77;;;13.60;;
3036;SDS011;1528;52.550;13.408;2023-01-10T14:54:10;14.90;;;13.80;;
3036;SDS011;1528;52.550;13.408;2023-01-10T14:56:57;17.57;;;16.33;;
3036;SDS011;1528;52.550;13.408;2023-01-10T14:59:43;16.37;;;15.00;;
3036;SDS011;1528;52.550;13.408;2023-01-10T15:02:29;17.53;;;13.70;;
3036;SDS011;1528;52.550;13.408;2023-01-10T15:05:15;14.17;;;13.07;;
3036;SDS011;1528;52.550;13.408;2023-01-10T15:11:10;14.83;;;13.57;;
3036;SDS011;1528;52.550;13.408;2023-01-10T15:14:00;15.50;;;14.40;;
3036;SDS011;1528;52.550;13.408;2023-01-10T15:16:50;12.40;;;11.07;;
3036;SDS011;1528;52.550;13.408;2023-01-10T15:19:37;14.87;;;13.60;;
3036;SDS011;1528;52.550;13.408;2023-01-10T15:22:26;13.57;;;12.53;;
3036;SDS011;1528;52.550;13.408;2023-01-10T15:25:27;13.13;;;12.10;;
3036;SDS011;1528;52.550;13.408;2023-01-10T15:28:16;14.73;;;13.83;;
3036;SDS011;1528;52.550;13.408;2023-01-10T15:31:04;15.63;;;14.57;;
3036;SDS011;1528;52.550;13.408;2023-01-10T15:33:53;19.00;;;17.60;;
3036;SDS011;1528;52.550;13.408;2023-01-10T15:36:40;16.00;;;15.00;;
3036;SDS011;1528;52.550;13.408;2023-01-10T15:39:30;17.17;;;15.77;;
3036;SDS011;1528;52.550;13.408;2023-01-10T15:42:18;19.10;;;17.43;;
3036;SDS011;1528;52.550;13.408;2023-01-10T15:45:20;16.00;;;14.67;;
3036;SDS011;1528;52.550;13.408;2023-01-10T15:48:27;17.50;;;16.23;;
3036;SDS011;1528;52.550;13.408;2023-01-10T15:51:21;16.63;;;15.30;;
3036;SDS011;1528;52.550;13.408;2023-01-10T15:54:26;15.53;;;14.53;;
3036;SDS011;1528;52.550;13.408;2023-01-10T15:57:18;18.47;;;16.57;;
3036;SDS011;1528;52.550;13.408;2023-01-10T16:00:12;16.90;;;15.47;;
3036;SDS011;1528;52.550;13.408;2023-01-10T16:03:00;13.70;;;12.90;;
3036;SDS011;1528;52.550;13.408;2023-01-10T16:05:49;18.83;;;17.23;;
3036;SDS011;1528;52.550;13.408;2023-01-10T16:08:37;17.40;;;16.00;;
3036;SDS011;1528;52.550;13.408;2023-01-10T16:11:23;17.10;;;15.70;;
3036;SDS011;1528;52.550;13.408;2023-01-10T16:14:37;17.20;;;16.10;;
3036;SDS011;1528;52.550;13.408;2023-01-10T16:17:23;15.13;;;14.03;;
3036;SDS011;1528;52.550;13.408;2023-01-10T16:20:11;16.23;;;15.33;;
3036;SDS011;1528;52.550;13.408;2023-01-10T16:22:58;16.20;;;15.10;;
3036;SDS011;1528;52.550;13.408;2023-01-10T16:25:45;16.47;;;15.40;;
3036;SDS011;1528;52.550;13.408;2023-01-10T16:28:32;17.13;;;15.70;;
3036;SDS011;1528;52.550;13.408;2023-01-10T16:31:20;17.07;;;15.63;;
3036;SDS011;1528;52.550;13.408;2023-01-10T16:34:05;20.43;;;18.83;;
3036;SDS011;1528;52.550;13.408;2023-01-10T16:36:51;23.43;;;21.23;;
3036;SDS011;1528;52.550;13.408;2023-01-10T16:39:38;24.00;;;21.97;;
3036;SDS011;1528;52.550;13.408;2023-01-10T16:42:23;26.57;;;24.87;;
3036;SDS011;1528;52.550;13.408;2023-01-10T16:45:25;21.33;;;19.53;;
3036;SDS011;1528;52.550;13.408;2023-01-10T16:48:12;17.30;;;16.13;;
3036;SDS011;1528;52.550;13.408;2023-01-10T16:51:03;19.83;;;18.20;;
3036;SDS011;1528;52.550;13.408;2023-01-10T16:53:57;21.77;;;20.60;;
3036;SDS011;1528;52.550;13.408;2023-01-10T16:56:44;17.77;;;16.53;;
3036;SDS011;1528;52.550;13.408;2023-01-10T16:59:31;15.30;;;14.20;;